sensor_id;sensor_type;location;lat;lon;timestamp;P1;durP1;ratioP1;P2;durP2;ratioP2
75626;SDS011;67372;49.404;11.034;2024-03-25T00:01:21;4.68;;;2.30;;
75626;SDS011;67372;49.404;11.034;2024-03-25T00:03:47;5.32;;;2.13;;
75626;SDS011;67372;49.404;11.034;2024-03-25T00:06:12;4.18;;;2.00;;
75626;SDS011;67372;49.404;11.034;2024-03-25T00:08:38;5.07;;;2.28;;
75626;SDS011;67372;49.404;11.034;2024-03-25T00:11:03;4.88;;;2.15;;
75626;SDS011;67372;49.404;11.034;2024-03-25T00:13:29;5.10;;;2.13;;
75626;SDS011;67372;49.404;11.034;2024-03-25T00:15:54;3.97;;;2.20;;
75626;SDS011;67372;49.404;11.034;2024-03-25T00:18:20;5.32;;;2.13;;
75626;SDS011;67372;49.404;11.034;2024-03-25T00:20:45;3.80;;;2.13;;
75626;SDS011;67372;49.404;11.034;2024-03-25T00:23:10;5.55;;;1.98;;
75626;SDS011;67372;49.404;11.034;2024-03-25T00:25:36;5.00;;;2.25;;
75626;SDS011;67372;49.404;11.034;2024-03-25T00:28:01;4.10;;;2.17;;
75626;SDS011;67372;49.404;11.034;2024-03-25T00:30:27;3.50;;;2.08;;
75626;SDS011;67372;49.404;11.034;2024-03-25T00:32:52;5.07;;;2.47;;
75626;SDS011;67372;49.404;11.034;2024-03-25T00:35:18;6.18;;;2.47;;
75626;SDS011;67372;49.404;11.034;2024-03-25T00:37:43;5.03;;;2.75;;
75626;SDS011;67372;49.404;11.034;2024-03-25T00:40:09;5.55;;;2.50;;
75626;SDS011;67372;49.404;11.034;2024-03-25T00:42:34;5.60;;;2.47;;
75626;SDS011;67372;49.404;11.034;2024-03-25T00:45:00;5.28;;;2.05;;
75626;SDS011;67372;49.404;11.034;2024-03-25T00:47:26;4.72;;;2.42;;
75626;SDS011;67372;49.404;11.034;2024-03-25T00:49:51;4.82;;;2.80;;
75626;SDS011;67372;49.404;11.034;2024-03-25T00:52:17;5.43;;;2.50;;
75626;SDS011;67372;49.404;11.034;2024-03-25T00:54:42;5.25;;;2.67;;
75626;SDS011;67372;49.404;11.034;2024-03-25T00:57:08;7.50;;;2.67;;
75626;SDS011;67372;49.404;11.034;2024-03-25T00:59:33;4.97;;;2.38;;
75626;SDS011;67372;49.404;11.034;2024-03-25T01:01:59;6.10;;;2.25;;
75626;SDS011;67372;49.404;11.034;2024-03-25T01:04:24;5.22;;;2.47;;
75626;SDS011;67372;49.404;11.034;2024-03-25T01:06:49;4.70;;;2.65;;
75626;SDS011;67372;49.404;11.034;2024-03-25T01:09:15;4.88;;;2.22;;
75626;SDS011;67372;49.404;11.034;2024-03-25T01:11:40;5.10;;;2.70;;
75626;SDS011;67372;49.404;11.034;2024-03-25T01:14:06;5.60;;;2.70;;
75626;SDS011;67372;49.404;11.034;2024-03-25T01:16:32;5.28;;;1.98;;
75626;SDS011;67372;49.404;11.034;2024-03-25T01:18:57;5.72;;;2.58;;
75626;SDS011;67372;49.404;11.034;2024-03-25T01:21:23;4.63;;;2.50;;
75626;SDS011;67372;49.404;11.034;2024-03-25T01:23:48;5.20;;;2.67;;
75626;SDS011;67372;49.404;11.034;2024-03-25T01:26:14;4.85;;;2.47;;
75626;SDS011;67372;49.404;11.034;2024-03-25T01:28:39;4.13;;;2.53;;
75626;SDS011;67372;49.404;11.034;2024-03-25T01:31:05;4.30;;;2.67;;
75626;SDS011;67372;49.404;11.034;2024-03-25T01:33:30;5.68;;;2.67;;
75626;SDS011;67372;49.404;11.034;2024-03-25T01:35:55;4.25;;;2.13;;
75626;SDS011;67372;49.404;11.034;2024-03-25T01:38:21;6.45;;;2.20;;
75626;SDS011;67372;49.404;11.034;2024-03-25T01:40:47;4.43;;;2.30;;
75626;SDS011;67372;49.404;11.034;2024-03-25T01:43:12;6.15;;;2.90;;
75626;SDS011;67372;49.404;11.034;2024-03-25T01:45:38;7.00;;;3.00;;
75626;SDS011;67372;49.404;11.034;2024-03-25T01:48:04;5.20;;;2.33;;
75626;SDS011;67372;49.404;11.034;2024-03-25T01:50:33;5.15;;;2.40;;
75626;SDS011;67372;49.404;11.034;2024-03-25T01:53:01;4.10;;;2.15;;
75626;SDS011;67372;49.404;11.034;2024-03-25T01:55:27;4.20;;;2.33;;
75626;SDS011;67372;49.404;11.034;2024-03-25T01:57:55;5.25;;;2.13;;
75626;SDS011;67372;49.404;11.034;2024-03-25T02:00:21;5.20;;;2.45;;
75626;SDS011;67372;49.404;11.034;2024-03-25T02:02:47;6.13;;;2.47;;
75626;SDS011;67372;49.404;11.034;2024-03-25T02:05:17;6.75;;;2.60;;
75626;SDS011;67372;49.404;11.034;2024-03-25T02:07:43;6.40;;;2.38;;
75626;SDS011;67372;49.404;11.034;2024-03-25T02:10:09;4.13;;;2.35;;
75626;SDS011;67372;49.404;11.034;2024-03-25T02:12:35;5.28;;;2.17;;
75626;SDS011;67372;49.404;11.034;2024-03-25T02:15:03;2.80;;;1.98;;
75626;SDS011;67372;49.404;11.034;2024-03-25T02:17:30;5.43;;;2.45;;
75626;SDS011;67372;49.404;11.034;2024-03-25T02:19:55;3.22;;;2.30;;
75626;SDS011;67372;49.404;11.034;2024-03-25T02:22:21;7.32;;;2.55;;
75626;SDS011;67372;49.404;11.034;2024-03-25T02:24:46;4.38;;;2.10;;
75626;SDS011;67372;49.404;11.034;2024-03-25T02:27:16;4.20;;;2.03;;
75626;SDS011;67372;49.404;11.034;2024-03-25T02:29:42;6.30;;;2.60;;
75626;SDS011;67372;49.404;11.034;2024-03-25T02:32:07;5.25;;;2.72;;
75626;SDS011;67372;49.404;11.034;2024-03-25T02:34:33;3.85;;;1.80;;
75626;SDS011;67372;49.404;11.034;2024-03-25T02:36:58;3.85;;;2.40;;
75626;SDS011;67372;49.404;11.034;2024-03-25T02:39:24;9.98;;;3.35;;
75626;SDS011;67372;49.404;11.034;2024-03-25T02:41:49;5.85;;;2.53;;
75626;SDS011;67372;49.404;11.034;2024-03-25T02:44:15;5.95;;;2.83;;
75626;SDS011;67372;49.404;11.034;2024-03-25T02:46:41;6.32;;;2.17;;
75626;SDS011;67372;49.404;11.034;2024-03-25T02:49:08;7.20;;;2.85;;
75626;SDS011;67372;49.404;11.034;2024-03-25T02:51:34;5.05;;;2.92;;
75626;SDS011;67372;49.404;11.034;2024-03-25T02:53:59;6.85;;;3.20;;
75626;SDS011;67372;49.404;11.034;2024-03-25T02:56:24;5.72;;;2.35;;
75626;SDS011;67372;49.404;11.034;2024-03-25T02:58:50;6.32;;;2.92;;
75626;SDS011;67372;49.404;11.034;2024-03-25T03:01:15;6.03;;;2.47;;
75626;SDS011;67372;49.404;11.034;2024-03-25T03:03:41;4.85;;;2.80;;
75626;SDS011;67372;49.404;11.034;2024-03-25T03:06:07;6.13;;;2.50;;
75626;SDS011;67372;49.404;11.034;2024-03-25T03:08:32;6.85;;;2.83;;
75626;SDS011;67372;49.404;11.034;2024-03-25T03:10:57;4.45;;;2.60;;
75626;SDS011;67372;49.404;11.034;2024-03-25T03:13:23;5.93;;;2.60;;
75626;SDS011;67372;49.404;11.034;2024-03-25T03:15:48;8.70;;;3.05;;
75626;SDS011;67372;49.404;11.034;2024-03-25T03:18:14;7.85;;;3.38;;
75626;SDS011;67372;49.404;11.034;2024-03-25T03:20:39;7.13;;;2.92;;
75626;SDS011;67372;49.404;11.034;2024-03-25T03:23:05;7.05;;;3.00;;
75626;SDS011;67372;49.404;11.034;2024-03-25T03:25:30;7.57;;;2.75;;
75626;SDS011;67372;49.404;11.034;2024-03-25T03:27:55;5.30;;;3.20;;
75626;SDS011;67372;49.404;11.034;2024-03-25T03:30:21;7.82;;;3.38;;
75626;SDS011;67372;49.404;11.034;2024-03-25T03:32:46;5.80;;;2.75;;
75626;SDS011;67372;49.404;11.034;2024-03-25T03:35:12;7.35;;;2.80;;
75626;SDS011;67372;49.404;11.034;2024-03-25T03:37:37;6.07;;;2.67;;
75626;SDS011;67372;49.404;11.034;2024-03-25T03:40:03;7.15;;;3.70;;
75626;SDS011;67372;49.404;11.034;2024-03-25T03:42:29;7.60;;;3.33;;
75626;SDS011;67372;49.404;11.034;2024-03-25T03:44:54;6.40;;;3.47;;
75626;SDS011;67372;49.404;11.034;2024-03-25T03:47:19;6.97;;;3.90;;
75626;SDS011;67372;49.404;11.034;2024-03-25T03:49:45;6.25;;;3.08;;
75626;SDS011;67372;49.404;11.034;2024-03-25T03:52:10;5.45;;;3.15;;
75626;SDS011;67372;49.404;11.034;2024-03-25T03:54:36;7.07;;;3.65;;
75626;SDS011;67372;49.404;11.034;2024-03-25T03:57:01;6.57;;;3.20;;
75626;SDS011;67372;49.404;11.034;2024-03-25T03:59:27;8.68;;;3.30;;
75626;SDS011;67372;49.404;11.034;2024-03-25T04:01:52;6.43;;;3.25;;
75626;SDS011;67372;49.404;11.034;2024-03-25T04:04:17;7.43;;;3.72;;
75626;SDS011;67372;49.404;11.034;2024-03-25T04:06:43;7.55;;;3.20;;
75626;SDS011;67372;49.404;11.034;2024-03-25T04:09:08;7.68;;;3.88;;
75626;SDS011;67372;49.404;11.034;2024-03-25T04:11:37;8.25;;;3.42;;
75626;SDS011;67372;49.404;11.034;2024-03-25T04:14:02;7.25;;;3.60;;
75626;SDS011;67372;49.404;11.034;2024-03-25T04:16:27;10.35;;;3.75;;
75626;SDS011;67372;49.404;11.034;2024-03-25T04:18:53;8.63;;;3.47;;
75626;SDS011;67372;49.404;11.034;2024-03-25T04:21:18;7.20;;;3.90;;
75626;SDS011;67372;49.404;11.034;2024-03-25T04:23:44;6.15;;;3.10;;
75626;SDS011;67372;49.404;11.034;2024-03-25T04:26:09;6.90;;;3.20;;
75626;SDS011;67372;49.404;11.034;2024-03-25T04:28:35;8.52;;;3.65;;
75626;SDS011;67372;49.404;11.034;2024-03-25T04:31:00;6.75;;;3.55;;
75626;SDS011;67372;49.404;11.034;2024-03-25T04:33:25;7.72;;;3.75;;
75626;SDS011;67372;49.404;11.034;2024-03-25T04:35:51;8.50;;;3.22;;
75626;SDS011;67372;49.404;11.034;2024-03-25T04:38:16;5.80;;;3.00;;
75626;SDS011;67372;49.404;11.034;2024-03-25T04:40:42;8.93;;;3.75;;
75626;SDS011;67372;49.404;11.034;2024-03-25T04:43:08;5.53;;;3.17;;
75626;SDS011;67372;49.404;11.034;2024-03-25T04:45:34;7.13;;;3.13;;
75626;SDS011;67372;49.404;11.034;2024-03-25T04:47:59;9.10;;;3.35;;
75626;SDS011;67372;49.404;11.034;2024-03-25T04:50:25;10.18;;;3.88;;
75626;SDS011;67372;49.404;11.034;2024-03-25T04:52:50;6.15;;;3.17;;
75626;SDS011;67372;49.404;11.034;2024-03-25T04:55:16;9.25;;;4.00;;
75626;SDS011;67372;49.404;11.034;2024-03-25T04:57:41;8.75;;;3.55;;
75626;SDS011;67372;49.404;11.034;2024-03-25T05:00:07;7.57;;;3.63;;
75626;SDS011;67372;49.404;11.034;2024-03-25T05:02:33;9.07;;;4.22;;
75626;SDS011;67372;49.404;11.034;2024-03-25T05:04:58;7.38;;;3.60;;
75626;SDS011;67372;49.404;11.034;2024-03-25T05:07:24;8.68;;;3.78;;
75626;SDS011;67372;49.404;11.034;2024-03-25T05:09:49;7.35;;;3.53;;
75626;SDS011;67372;49.404;11.034;2024-03-25T05:12:14;8.38;;;3.97;;
75626;SDS011;67372;49.404;11.034;2024-03-25T05:14:40;9.45;;;3.92;;
75626;SDS011;67372;49.404;11.034;2024-03-25T05:17:05;10.02;;;3.75;;
75626;SDS011;67372;49.404;11.034;2024-03-25T05:19:31;8.98;;;3.38;;
75626;SDS011;67372;49.404;11.034;2024-03-25T05:21:56;11.57;;;3.83;;
75626;SDS011;67372;49.404;11.034;2024-03-25T05:24:22;9.20;;;3.90;;
75626;SDS011;67372;49.404;11.034;2024-03-25T05:26:47;7.57;;;3.38;;
75626;SDS011;67372;49.404;11.034;2024-03-25T05:29:12;8.75;;;3.22;;
75626;SDS011;67372;49.404;11.034;2024-03-25T05:31:38;7.93;;;3.60;;
75626;SDS011;67372;49.404;11.034;2024-03-25T05:34:04;7.88;;;3.45;;
75626;SDS011;67372;49.404;11.034;2024-03-25T05:36:30;6.20;;;3.75;;
75626;SDS011;67372;49.404;11.034;2024-03-25T05:38:55;6.75;;;3.42;;
75626;SDS011;67372;49.404;11.034;2024-03-25T05:41:21;6.93;;;3.45;;
75626;SDS011;67372;49.404;11.034;2024-03-25T05:43:46;9.07;;;3.58;;
75626;SDS011;67372;49.404;11.034;2024-03-25T05:46:11;7.30;;;3.22;;
75626;SDS011;67372;49.404;11.034;2024-03-25T05:48:37;6.63;;;2.72;;
75626;SDS011;67372;49.404;11.034;2024-03-25T05:53:29;7.97;;;3.63;;
75626;SDS011;67372;49.404;11.034;2024-03-25T05:55:55;6.97;;;3.40;;
75626;SDS011;67372;49.404;11.034;2024-03-25T05:58:21;9.02;;;3.50;;
75626;SDS011;67372;49.404;11.034;2024-03-25T06:00:47;10.52;;;3.45;;
75626;SDS011;67372;49.404;11.034;2024-03-25T06:03:13;7.18;;;3.58;;
75626;SDS011;67372;49.404;11.034;2024-03-25T06:05:39;9.35;;;4.10;;
75626;SDS011;67372;49.404;11.034;2024-03-25T06:08:05;7.53;;;4.25;;
75626;SDS011;67372;49.404;11.034;2024-03-25T06:10:36;8.48;;;3.97;;
75626;SDS011;67372;49.404;11.034;2024-03-25T06:13:02;6.35;;;3.35;;
75626;SDS011;67372;49.404;11.034;2024-03-25T06:15:27;8.55;;;3.40;;
75626;SDS011;67372;49.404;11.034;2024-03-25T06:17:53;7.57;;;3.58;;
75626;SDS011;67372;49.404;11.034;2024-03-25T06:20:18;6.78;;;3.47;;
75626;SDS011;67372;49.404;11.034;2024-03-25T06:22:44;6.13;;;3.08;;
75626;SDS011;67372;49.404;11.034;2024-03-25T06:25:09;4.28;;;2.85;;
75626;SDS011;67372;49.404;11.034;2024-03-25T06:27:34;6.80;;;3.10;;
75626;SDS011;67372;49.404;11.034;2024-03-25T06:30:00;6.25;;;3.08;;
75626;SDS011;67372;49.404;11.034;2024-03-25T06:32:26;6.50;;;3.17;;
75626;SDS011;67372;49.404;11.034;2024-03-25T06:34:51;7.90;;;3.25;;
75626;SDS011;67372;49.404;11.034;2024-03-25T06:37:16;7.10;;;3.03;;
75626;SDS011;67372;49.404;11.034;2024-03-25T06:39:42;6.72;;;3.40;;
75626;SDS011;67372;49.404;11.034;2024-03-25T06:42:07;6.63;;;3.40;;
75626;SDS011;67372;49.404;11.034;2024-03-25T06:44:33;4.85;;;2.97;;
75626;SDS011;67372;49.404;11.034;2024-03-25T06:46:58;6.95;;;3.25;;
75626;SDS011;67372;49.404;11.034;2024-03-25T06:49:24;5.43;;;2.95;;
75626;SDS011;67372;49.404;11.034;2024-03-25T06:51:49;5.43;;;3.00;;
75626;SDS011;67372;49.404;11.034;2024-03-25T06:54:14;6.07;;;3.10;;
75626;SDS011;67372;49.404;11.034;2024-03-25T06:56:40;7.70;;;2.88;;
75626;SDS011;67372;49.404;11.034;2024-03-25T06:59:05;5.55;;;2.75;;
75626;SDS011;67372;49.404;11.034;2024-03-25T07:01:31;5.85;;;2.72;;
75626;SDS011;67372;49.404;11.034;2024-03-25T07:03:56;5.80;;;2.80;;
75626;SDS011;67372;49.404;11.034;2024-03-25T07:06:22;4.93;;;3.03;;
75626;SDS011;67372;49.404;11.034;2024-03-25T07:08:47;4.95;;;2.78;;
75626;SDS011;67372;49.404;11.034;2024-03-25T07:11:12;6.07;;;3.15;;
75626;SDS011;67372;49.404;11.034;2024-03-25T07:13:38;7.28;;;2.28;;
75626;SDS011;67372;49.404;11.034;2024-03-25T07:16:03;5.88;;;2.83;;
75626;SDS011;67372;49.404;11.034;2024-03-25T07:18:29;7.75;;;3.03;;
75626;SDS011;67372;49.404;11.034;2024-03-25T07:20:54;6.82;;;2.90;;
75626;SDS011;67372;49.404;11.034;2024-03-25T07:23:20;3.47;;;1.90;;
75626;SDS011;67372;49.404;11.034;2024-03-25T07:25:45;5.35;;;2.80;;
75626;SDS011;67372;49.404;11.034;2024-03-25T07:28:11;4.53;;;2.17;;
75626;SDS011;67372;49.404;11.034;2024-03-25T07:30:36;7.53;;;2.42;;
75626;SDS011;67372;49.404;11.034;2024-03-25T07:33:01;6.28;;;3.30;;
75626;SDS011;67372;49.404;11.034;2024-03-25T07:35:27;4.93;;;2.42;;
75626;SDS011;67372;49.404;11.034;2024-03-25T07:37:52;3.90;;;2.20;;
75626;SDS011;67372;49.404;11.034;2024-03-25T07:40:18;6.25;;;2.50;;
75626;SDS011;67372;49.404;11.034;2024-03-25T07:42:44;3.97;;;2.05;;
75626;SDS011;67372;49.404;11.034;2024-03-25T07:45:10;5.15;;;2.35;;
75626;SDS011;67372;49.404;11.034;2024-03-25T07:47:35;5.40;;;2.65;;
75626;SDS011;67372;49.404;11.034;2024-03-25T07:50:01;4.72;;;2.20;;
75626;SDS011;67372;49.404;11.034;2024-03-25T07:52:27;4.55;;;2.17;;
75626;SDS011;67372;49.404;11.034;2024-03-25T07:54:55;5.68;;;2.40;;
75626;SDS011;67372;49.404;11.034;2024-03-25T07:57:21;8.95;;;2.33;;
75626;SDS011;67372;49.404;11.034;2024-03-25T07:59:47;4.75;;;2.30;;
75626;SDS011;67372;49.404;11.034;2024-03-25T08:02:12;5.60;;;2.30;;
75626;SDS011;67372;49.404;11.034;2024-03-25T08:04:38;6.38;;;2.28;;
75626;SDS011;67372;49.404;11.034;2024-03-25T08:07:03;4.00;;;1.70;;
75626;SDS011;67372;49.404;11.034;2024-03-25T08:09:29;5.18;;;1.98;;
75626;SDS011;67372;49.404;11.034;2024-03-25T08:11:55;3.00;;;1.52;;
75626;SDS011;67372;49.404;11.034;2024-03-25T08:14:20;3.63;;;1.70;;
75626;SDS011;67372;49.404;11.034;2024-03-25T08:16:46;5.38;;;1.77;;
75626;SDS011;67372;49.404;11.034;2024-03-25T08:19:11;4.63;;;1.70;;
75626;SDS011;67372;49.404;11.034;2024-03-25T08:21:37;4.10;;;1.70;;
75626;SDS011;67372;49.404;11.034;2024-03-25T08:24:02;3.30;;;1.60;;
75626;SDS011;67372;49.404;11.034;2024-03-25T08:26:28;4.90;;;2.33;;
75626;SDS011;67372;49.404;11.034;2024-03-25T08:28:53;3.72;;;1.67;;
75626;SDS011;67372;49.404;11.034;2024-03-25T08:31:19;4.47;;;1.83;;
75626;SDS011;67372;49.404;11.034;2024-03-25T08:33:44;3.28;;;1.80;;
75626;SDS011;67372;49.404;11.034;2024-03-25T08:36:10;3.50;;;1.80;;
75626;SDS011;67372;49.404;11.034;2024-03-25T08:38:35;5.18;;;1.90;;
75626;SDS011;67372;49.404;11.034;2024-03-25T08:41:00;2.65;;;1.50;;
75626;SDS011;67372;49.404;11.034;2024-03-25T08:43:26;4.43;;;1.55;;
75626;SDS011;67372;49.404;11.034;2024-03-25T08:45:51;3.33;;;1.58;;
75626;SDS011;67372;49.404;11.034;2024-03-25T08:48:17;3.47;;;1.60;;
75626;SDS011;67372;49.404;11.034;2024-03-25T08:50:43;4.30;;;1.73;;
75626;SDS011;67372;49.404;11.034;2024-03-25T08:53:09;3.40;;;1.30;;
75626;SDS011;67372;49.404;11.034;2024-03-25T08:55:34;4.07;;;1.63;;
75626;SDS011;67372;49.404;11.034;2024-03-25T08:57:59;3.35;;;1.55;;
75626;SDS011;67372;49.404;11.034;2024-03-25T09:00:25;3.33;;;1.77;;
75626;SDS011;67372;49.404;11.034;2024-03-25T09:02:54;2.80;;;1.73;;
75626;SDS011;67372;49.404;11.034;2024-03-25T09:05:22;4.10;;;1.90;;
75626;SDS011;67372;49.404;11.034;2024-03-25T09:07:51;2.92;;;1.58;;
75626;SDS011;67372;49.404;11.034;2024-03-25T09:10:17;3.08;;;1.73;;
75626;SDS011;67372;49.404;11.034;2024-03-25T09:12:45;2.72;;;1.50;;
75626;SDS011;67372;49.404;11.034;2024-03-25T09:15:10;2.72;;;1.45;;
75626;SDS011;67372;49.404;11.034;2024-03-25T09:17:36;2.13;;;1.40;;
75626;SDS011;67372;49.404;11.034;2024-03-25T09:20:02;3.08;;;1.50;;
75626;SDS011;67372;49.404;11.034;2024-03-25T09:22:28;2.10;;;1.50;;
75626;SDS011;67372;49.404;11.034;2024-03-25T09:24:53;3.58;;;1.20;;
75626;SDS011;67372;49.404;11.034;2024-03-25T09:27:19;2.20;;;1.35;;
75626;SDS011;67372;49.404;11.034;2024-03-25T09:29:44;2.67;;;1.30;;
75626;SDS011;67372;49.404;11.034;2024-03-25T09:32:09;2.15;;;1.20;;
75626;SDS011;67372;49.404;11.034;2024-03-25T09:34:35;3.20;;;1.50;;
75626;SDS011;67372;49.404;11.034;2024-03-25T09:37:00;2.83;;;1.50;;
75626;SDS011;67372;49.404;11.034;2024-03-25T09:39:26;3.80;;;1.40;;
75626;SDS011;67372;49.404;11.034;2024-03-25T09:41:52;2.15;;;1.33;;
75626;SDS011;67372;49.404;11.034;2024-03-25T09:44:22;2.40;;;1.27;;
75626;SDS011;67372;49.404;11.034;2024-03-25T09:46:50;5.32;;;1.40;;
75626;SDS011;67372;49.404;11.034;2024-03-25T09:49:16;3.38;;;1.60;;
75626;SDS011;67372;49.404;11.034;2024-03-25T09:51:42;3.20;;;1.77;;
75626;SDS011;67372;49.404;11.034;2024-03-25T09:54:08;4.10;;;1.85;;
75626;SDS011;67372;49.404;11.034;2024-03-25T09:56:33;2.35;;;1.52;;
75626;SDS011;67372;49.404;11.034;2024-03-25T09:59:00;3.25;;;1.80;;
75626;SDS011;67372;49.404;11.034;2024-03-25T10:01:25;2.20;;;1.40;;
75626;SDS011;67372;49.404;11.034;2024-03-25T10:03:51;3.70;;;1.60;;
75626;SDS011;67372;49.404;11.034;2024-03-25T10:06:16;3.55;;;1.33;;
75626;SDS011;67372;49.404;11.034;2024-03-25T10:08:42;3.50;;;1.50;;
75626;SDS011;67372;49.404;11.034;2024-03-25T10:11:07;3.97;;;1.73;;
75626;SDS011;67372;49.404;11.034;2024-03-25T10:13:33;5.55;;;1.50;;
75626;SDS011;67372;49.404;11.034;2024-03-25T10:15:58;2.03;;;1.30;;
75626;SDS011;67372;49.404;11.034;2024-03-25T10:18:24;4.05;;;1.70;;
75626;SDS011;67372;49.404;11.034;2024-03-25T10:20:50;3.53;;;1.60;;
75626;SDS011;67372;49.404;11.034;2024-03-25T10:23:22;3.47;;;1.58;;
75626;SDS011;67372;49.404;11.034;2024-03-25T10:25:48;3.25;;;1.67;;
75626;SDS011;67372;49.404;11.034;2024-03-25T10:28:14;3.17;;;1.55;;
75626;SDS011;67372;49.404;11.034;2024-03-25T10:30:40;2.80;;;1.70;;
75626;SDS011;67372;49.404;11.034;2024-03-25T10:33:06;2.05;;;1.27;;
75626;SDS011;67372;49.404;11.034;2024-03-25T10:35:33;1.80;;;1.20;;
75626;SDS011;67372;49.404;11.034;2024-03-25T10:38:00;2.50;;;1.38;;
75626;SDS011;67372;49.404;11.034;2024-03-25T10:40:30;2.55;;;1.30;;
75626;SDS011;67372;49.404;11.034;2024-03-25T10:43:01;3.33;;;1.67;;
75626;SDS011;67372;49.404;11.034;2024-03-25T10:45:28;2.60;;;1.52;;
75626;SDS011;67372;49.404;11.034;2024-03-25T10:47:58;3.58;;;1.35;;
75626;SDS011;67372;49.404;11.034;2024-03-25T10:50:29;2.25;;;1.15;;
75626;SDS011;67372;49.404;11.034;2024-03-25T10:52:55;3.17;;;1.20;;
75626;SDS011;67372;49.404;11.034;2024-03-25T10:55:23;2.38;;;1.10;;
75626;SDS011;67372;49.404;11.034;2024-03-25T10:57:49;2.72;;;1.50;;
75626;SDS011;67372;49.404;11.034;2024-03-25T11:00:16;2.83;;;1.40;;
75626;SDS011;67372;49.404;11.034;2024-03-25T11:02:42;5.15;;;1.60;;
75626;SDS011;67372;49.404;11.034;2024-03-25T11:05:08;2.67;;;1.52;;
75626;SDS011;67372;49.404;11.034;2024-03-25T11:07:35;4.65;;;1.50;;
75626;SDS011;67372;49.404;11.034;2024-03-25T11:10:04;3.50;;;1.70;;
75626;SDS011;67372;49.404;11.034;2024-03-25T11:12:40;2.13;;;1.40;;
75626;SDS011;67372;49.404;11.034;2024-03-25T11:15:07;2.72;;;1.10;;
75626;SDS011;67372;49.404;11.034;2024-03-25T11:17:33;1.60;;;1.20;;
75626;SDS011;67372;49.404;11.034;2024-03-25T11:20:06;1.70;;;1.00;;
75626;SDS011;67372;49.404;11.034;2024-03-25T11:22:32;4.00;;;1.00;;
75626;SDS011;67372;49.404;11.034;2024-03-25T11:24:57;2.45;;;1.30;;
75626;SDS011;67372;49.404;11.034;2024-03-25T11:27:34;3.28;;;1.33;;
75626;SDS011;67372;49.404;11.034;2024-03-25T11:30:02;2.83;;;1.58;;
75626;SDS011;67372;49.404;11.034;2024-03-25T11:32:30;2.42;;;1.73;;
75626;SDS011;67372;49.404;11.034;2024-03-25T11:35:08;2.83;;;1.20;;
75626;SDS011;67372;49.404;11.034;2024-03-25T11:37:38;1.77;;;1.33;;
75626;SDS011;67372;49.404;11.034;2024-03-25T11:40:04;1.70;;;1.30;;
75626;SDS011;67372;49.404;11.034;2024-03-25T11:42:30;1.80;;;1.40;;
75626;SDS011;67372;49.404;11.034;2024-03-25T11:44:57;2.53;;;1.30;;
75626;SDS011;67372;49.404;11.034;2024-03-25T11:47:22;3.03;;;1.38;;
75626;SDS011;67372;49.404;11.034;2024-03-25T11:49:48;1.80;;;1.33;;
75626;SDS011;67372;49.404;11.034;2024-03-25T11:52:13;3.20;;;1.75;;
75626;SDS011;67372;49.404;11.034;2024-03-25T11:54:39;3.45;;;1.50;;
75626;SDS011;67372;49.404;11.034;2024-03-25T11:57:04;4.60;;;1.60;;
75626;SDS011;67372;49.404;11.034;2024-03-25T11:59:30;3.67;;;1.70;;
75626;SDS011;67372;49.404;11.034;2024-03-25T12:01:55;4.40;;;1.65;;
75626;SDS011;67372;49.404;11.034;2024-03-25T12:04:20;3.13;;;1.75;;
75626;SDS011;67372;49.404;11.034;2024-03-25T12:06:46;3.08;;;1.77;;
75626;SDS011;67372;49.404;11.034;2024-03-25T12:09:11;3.45;;;1.70;;
75626;SDS011;67372;49.404;11.034;2024-03-25T12:11:37;3.63;;;1.65;;
75626;SDS011;67372;49.404;11.034;2024-03-25T12:14:02;3.80;;;1.85;;
75626;SDS011;67372;49.404;11.034;2024-03-25T12:16:28;2.60;;;1.67;;
75626;SDS011;67372;49.404;11.034;2024-03-25T12:18:54;1.85;;;1.30;;
75626;SDS011;67372;49.404;11.034;2024-03-25T12:21:19;3.45;;;1.30;;
75626;SDS011;67372;49.404;11.034;2024-03-25T12:23:45;2.42;;;1.33;;
75626;SDS011;67372;49.404;11.034;2024-03-25T12:26:12;1.60;;;1.15;;
75626;SDS011;67372;49.404;11.034;2024-03-25T12:28:39;2.35;;;1.40;;
75626;SDS011;67372;49.404;11.034;2024-03-25T12:31:07;3.88;;;1.60;;
75626;SDS011;67372;49.404;11.034;2024-03-25T12:33:40;1.83;;;1.25;;
75626;SDS011;67372;49.404;11.034;2024-03-25T12:36:06;1.77;;;1.20;;
75626;SDS011;67372;49.404;11.034;2024-03-25T12:38:31;3.38;;;1.70;;
75626;SDS011;67372;49.404;11.034;2024-03-25T12:41:03;2.13;;;1.38;;
75626;SDS011;67372;49.404;11.034;2024-03-25T12:43:33;2.05;;;1.30;;
75626;SDS011;67372;49.404;11.034;2024-03-25T12:45:59;2.78;;;1.40;;
75626;SDS011;67372;49.404;11.034;2024-03-25T12:48:25;3.55;;;1.40;;
75626;SDS011;67372;49.404;11.034;2024-03-25T12:50:51;2.92;;;1.90;;
75626;SDS011;67372;49.404;11.034;2024-03-25T12:53:17;2.70;;;1.60;;
75626;SDS011;67372;49.404;11.034;2024-03-25T12:55:44;2.72;;;1.58;;
75626;SDS011;67372;49.404;11.034;2024-03-25T12:58:10;3.35;;;1.75;;
75626;SDS011;67372;49.404;11.034;2024-03-25T13:00:36;3.05;;;1.60;;
75626;SDS011;67372;49.404;11.034;2024-03-25T13:03:01;2.42;;;1.30;;
75626;SDS011;67372;49.404;11.034;2024-03-25T13:05:27;2.92;;;1.80;;
75626;SDS011;67372;49.404;11.034;2024-03-25T13:07:52;2.75;;;1.70;;
75626;SDS011;67372;49.404;11.034;2024-03-25T13:10:18;3.95;;;1.88;;
75626;SDS011;67372;49.404;11.034;2024-03-25T13:12:43;3.58;;;1.52;;
75626;SDS011;67372;49.404;11.034;2024-03-25T13:15:08;2.97;;;1.63;;
75626;SDS011;67372;49.404;11.034;2024-03-25T13:17:34;1.75;;;1.10;;
75626;SDS011;67372;49.404;11.034;2024-03-25T13:19:59;2.42;;;1.63;;
75626;SDS011;67372;49.404;11.034;2024-03-25T13:22:25;2.42;;;1.52;;
75626;SDS011;67372;49.404;11.034;2024-03-25T13:24:50;3.58;;;1.60;;
75626;SDS011;67372;49.404;11.034;2024-03-25T13:27:16;2.35;;;1.50;;
75626;SDS011;67372;49.404;11.034;2024-03-25T13:29:41;2.65;;;1.35;;
75626;SDS011;67372;49.404;11.034;2024-03-25T13:32:07;1.77;;;1.30;;
75626;SDS011;67372;49.404;11.034;2024-03-25T13:34:32;2.90;;;1.45;;
75626;SDS011;67372;49.404;11.034;2024-03-25T13:36:57;3.03;;;1.75;;
75626;SDS011;67372;49.404;11.034;2024-03-25T13:39:23;2.38;;;1.60;;
75626;SDS011;67372;49.404;11.034;2024-03-25T13:41:48;2.60;;;1.55;;
75626;SDS011;67372;49.404;11.034;2024-03-25T13:44:14;2.53;;;1.50;;
75626;SDS011;67372;49.404;11.034;2024-03-25T13:46:40;3.05;;;1.70;;
75626;SDS011;67372;49.404;11.034;2024-03-25T13:49:05;2.38;;;1.40;;
75626;SDS011;67372;49.404;11.034;2024-03-25T13:51:31;2.17;;;1.48;;
75626;SDS011;67372;49.404;11.034;2024-03-25T13:53:56;3.00;;;1.55;;
75626;SDS011;67372;49.404;11.034;2024-03-25T13:56:21;2.88;;;1.75;;
75626;SDS011;67372;49.404;11.034;2024-03-25T13:58:47;2.40;;;1.40;;
75626;SDS011;67372;49.404;11.034;2024-03-25T14:01:12;2.63;;;1.73;;
75626;SDS011;67372;49.404;11.034;2024-03-25T14:03:38;3.42;;;1.27;;
75626;SDS011;67372;49.404;11.034;2024-03-25T14:06:03;2.97;;;1.48;;
75626;SDS011;67372;49.404;11.034;2024-03-25T14:08:29;2.38;;;1.27;;
75626;SDS011;67372;49.404;11.034;2024-03-25T14:10:58;3.90;;;1.42;;
75626;SDS011;67372;49.404;11.034;2024-03-25T14:13:24;2.83;;;1.42;;
75626;SDS011;67372;49.404;11.034;2024-03-25T14:15:50;1.80;;;1.30;;
75626;SDS011;67372;49.404;11.034;2024-03-25T14:18:15;2.80;;;1.50;;
75626;SDS011;67372;49.404;11.034;2024-03-25T14:20:41;1.88;;;1.40;;
75626;SDS011;67372;49.404;11.034;2024-03-25T14:23:06;2.30;;;1.42;;
75626;SDS011;67372;49.404;11.034;2024-03-25T14:25:33;2.10;;;1.10;;
75626;SDS011;67372;49.404;11.034;2024-03-25T14:27:58;2.33;;;1.33;;